createdAt,value
2023-12-18T00:01:46.204Z,16.50
2023-12-18T00:04:14.404Z,16.60
2023-12-18T00:06:42.743Z,15.80
2023-12-18T00:09:11.112Z,16.40
2023-12-18T00:11:39.416Z,17.90
2023-12-18T00:14:08.654Z,20.70
2023-12-18T00:16:36.733Z,20.40
2023-12-18T00:19:06.073Z,21.10
2023-12-18T00:21:34.486Z,23.20
2023-12-18T00:24:04.398Z,21.50
2023-12-18T00:26:48.142Z,18.80
2023-12-18T00:29:30.320Z,18.60
2023-12-18T00:32:00.861Z,18.40
2023-12-18T00:34:29.675Z,19.90
2023-12-18T00:36:57.969Z,16.50
2023-12-18T00:39:29.086Z,17.30
2023-12-18T00:41:57.186Z,14.10
2023-12-18T00:44:25.405Z,15.10
2023-12-18T00:46:53.573Z,16.30
2023-12-18T00:49:21.825Z,14.70
2023-12-18T00:51:50.088Z,15.20
2023-12-18T00:54:19.616Z,14.80
2023-12-18T00:56:47.797Z,16.00
2023-12-18T00:59:15.928Z,13.50
2023-12-18T01:01:44.087Z,14.50
2023-12-18T01:04:12.846Z,14.10
2023-12-18T01:06:41.159Z,17.30
2023-12-18T01:09:10.126Z,15.10
2023-12-18T01:11:38.347Z,15.40
2023-12-18T01:14:06.396Z,14.50
2023-12-18T01:16:34.402Z,17.90
2023-12-18T01:19:04.031Z,14.40
2023-12-18T01:21:32.328Z,17.90
2023-12-18T01:24:00.961Z,18.50
2023-12-18T01:26:29.107Z,17.10
2023-12-18T01:28:57.188Z,17.80
2023-12-18T01:31:25.537Z,19.40
2023-12-18T01:33:54.839Z,18.00
2023-12-18T01:36:26.423Z,17.70
2023-12-18T01:38:57.330Z,17.40
2023-12-18T01:41:25.451Z,17.00
2023-12-18T01:43:53.586Z,16.40
2023-12-18T01:46:25.284Z,15.00
2023-12-18T01:48:53.797Z,15.60
2023-12-18T01:51:24.009Z,17.00
2023-12-18T01:53:54.320Z,15.20
2023-12-18T01:56:23.659Z,21.70
2023-12-18T01:58:51.762Z,18.10
2023-12-18T02:01:20.036Z,17.80
2023-12-18T02:03:48.172Z,17.40
2023-12-18T02:06:17.424Z,18.90
2023-12-18T02:08:45.551Z,20.50
2023-12-18T02:11:13.608Z,17.60
2023-12-18T02:13:42.216Z,18.10
2023-12-18T02:16:11.064Z,20.10
2023-12-18T02:18:48.743Z,18.50
2023-12-18T02:21:22.853Z,19.60
2023-12-18T02:23:51.090Z,18.50
2023-12-18T02:26:19.303Z,16.30
2023-12-18T02:28:47.473Z,15.70
2023-12-18T02:31:15.836Z,18.50
2023-12-18T02:33:49.957Z,18.80
2023-12-18T02:36:18.422Z,15.50
2023-12-18T02:38:46.476Z,19.30
2023-12-18T02:41:14.523Z,18.20
2023-12-18T02:43:42.851Z,20.10
2023-12-18T02:46:11.029Z,18.80
2023-12-18T02:48:39.430Z,18.10
2023-12-18T02:51:07.892Z,18.30
2023-12-18T02:53:36.813Z,18.30
2023-12-18T02:56:05.382Z,18.70
2023-12-18T02:58:33.545Z,19.20
2023-12-18T03:01:01.612Z,18.80
2023-12-18T03:03:29.699Z,20.30
2023-12-18T03:05:58.000Z,18.10
2023-12-18T03:08:26.346Z,17.60
2023-12-18T03:10:55.135Z,16.80
2023-12-18T03:13:23.275Z,17.60
2023-12-18T03:15:51.569Z,18.20
2023-12-18T03:18:19.867Z,20.70
2023-12-18T03:20:49.208Z,17.40
2023-12-18T03:23:17.312Z,19.80
2023-12-18T03:25:45.434Z,20.40
2023-12-18T03:28:14.561Z,17.80
2023-12-18T03:30:43.018Z,19.20
2023-12-18T03:33:11.522Z,15.90
2023-12-18T03:35:39.920Z,17.30
2023-12-18T03:38:08.161Z,13.70
2023-12-18T03:40:36.283Z,16.70
2023-12-18T03:43:04.666Z,17.80
2023-12-18T03:45:32.817Z,17.80
2023-12-18T03:48:01.030Z,18.70
2023-12-18T03:50:29.099Z,16.80
2023-12-18T03:52:57.397Z,17.70
2023-12-18T03:55:25.647Z,18.10
2023-12-18T03:57:55.227Z,19.90
2023-12-18T04:00:23.315Z,17.20
2023-12-18T04:02:51.364Z,17.30
2023-12-18T04:05:19.748Z,17.20
2023-12-18T04:07:47.983Z,16.30
2023-12-18T04:10:16.461Z,19.10
2023-12-18T04:12:45.956Z,21.00
2023-12-18T04:15:14.278Z,18.10
2023-12-18T04:17:42.750Z,15.80
2023-12-18T04:20:11.768Z,17.10
2023-12-18T04:22:45.975Z,17.50
2023-12-18T04:25:15.272Z,17.90
2023-12-18T04:27:43.574Z,19.40
2023-12-18T04:30:12.688Z,19.20
2023-12-18T04:32:43.045Z,19.50
2023-12-18T04:35:12.997Z,20.00
2023-12-18T04:37:41.357Z,21.80
2023-12-18T04:40:11.412Z,19.10
2023-12-18T04:42:39.651Z,20.00
2023-12-18T04:45:08.414Z,20.60
2023-12-18T04:47:36.823Z,18.70
2023-12-18T04:50:05.965Z,18.50
2023-12-18T04:52:34.198Z,9.80
2023-12-18T04:55:02.529Z,15.90
2023-12-18T04:57:30.745Z,16.60
2023-12-18T04:59:59.105Z,17.10
2023-12-18T05:02:27.422Z,16.00
2023-12-18T05:04:55.708Z,16.50
2023-12-18T05:07:24.268Z,16.70
2023-12-18T05:09:52.532Z,17.80
2023-12-18T05:12:20.957Z,14.20
2023-12-18T05:14:49.366Z,15.80
2023-12-18T05:17:17.635Z,16.50
2023-12-18T05:19:46.078Z,18.10
2023-12-18T05:22:14.368Z,18.70
2023-12-18T05:24:42.396Z,15.60
2023-12-18T05:27:10.451Z,15.40
2023-12-18T05:29:38.783Z,16.50
2023-12-18T05:32:07.208Z,15.80
2023-12-18T05:34:35.431Z,15.70
2023-12-18T05:37:03.769Z,14.70
2023-12-18T05:39:31.979Z,13.00
2023-12-18T05:42:00.136Z,12.90
2023-12-18T05:44:28.413Z,13.80
2023-12-18T05:46:56.953Z,18.00
2023-12-18T05:49:25.144Z,16.70
2023-12-18T05:51:53.405Z,14.10
2023-12-18T05:54:21.588Z,14.00
2023-12-18T05:56:49.745Z,14.50
2023-12-18T05:59:17.896Z,16.00
2023-12-18T06:01:46.378Z,16.10
2023-12-18T06:04:14.622Z,14.80
2023-12-18T06:06:43.120Z,12.60
2023-12-18T06:09:11.519Z,12.90
2023-12-18T06:11:39.763Z,14.00
2023-12-18T06:14:08.088Z,12.30
2023-12-18T06:16:36.285Z,15.60
2023-12-18T06:19:04.640Z,10.90
2023-12-18T06:21:33.005Z,12.50
2023-12-18T06:24:01.179Z,14.50
2023-12-18T06:26:30.377Z,13.30
2023-12-18T06:28:58.620Z,13.90
2023-12-18T06:31:26.827Z,13.70
2023-12-18T06:33:55.366Z,16.00
2023-12-18T06:36:23.670Z,15.20
2023-12-18T06:38:51.841Z,15.70
2023-12-18T06:41:19.989Z,16.00
2023-12-18T06:43:48.280Z,14.00
2023-12-18T06:46:16.497Z,16.00
2023-12-18T06:48:44.799Z,14.80
2023-12-18T06:51:12.998Z,15.60
2023-12-18T06:53:41.084Z,14.30
2023-12-18T06:56:09.866Z,13.60
2023-12-18T06:58:37.979Z,14.70
2023-12-18T07:01:07.395Z,14.80
2023-12-18T07:03:35.882Z,14.20
2023-12-18T07:06:04.525Z,15.00
2023-12-18T07:08:32.764Z,16.30
2023-12-18T07:11:01.478Z,13.20
2023-12-18T07:13:29.828Z,13.80
2023-12-18T07:15:58.173Z,12.90
2023-12-18T07:18:29.677Z,11.30
2023-12-18T07:20:57.939Z,11.20
2023-12-18T07:23:26.599Z,14.20
2023-12-18T07:25:59.169Z,14.00
2023-12-18T07:28:27.140Z,15.50
2023-12-18T07:30:55.294Z,13.10
2023-12-18T07:33:23.618Z,11.80
2023-12-18T07:35:53.679Z,11.80
2023-12-18T07:38:21.729Z,14.40
2023-12-18T07:40:49.864Z,14.60
2023-12-18T07:43:18.168Z,15.90
2023-12-18T07:45:46.274Z,13.70
2023-12-18T07:48:14.785Z,13.40
2023-12-18T07:50:42.974Z,16.10
2023-12-18T07:53:11.106Z,13.60
2023-12-18T07:55:40.563Z,13.20
2023-12-18T07:58:08.836Z,13.90
2023-12-18T08:00:37.145Z,15.40
2023-12-18T08:03:05.947Z,13.80
2023-12-18T08:05:34.464Z,14.40
2023-12-18T08:08:03.401Z,13.20
2023-12-18T08:10:31.604Z,14.20
2023-12-18T08:12:59.832Z,13.90
2023-12-18T08:15:28.061Z,12.40
2023-12-18T08:17:56.387Z,15.90
2023-12-18T08:20:24.610Z,15.20
2023-12-18T08:22:52.833Z,14.00
2023-12-18T08:25:22.305Z,14.80
2023-12-18T08:27:50.495Z,15.00
2023-12-18T08:30:18.649Z,13.90
2023-12-18T08:32:47.286Z,11.40
2023-12-18T08:35:15.424Z,15.40
2023-12-18T08:37:43.525Z,15.30
2023-12-18T08:40:12.226Z,13.40
2023-12-18T08:42:40.443Z,16.20
2023-12-18T08:45:09.628Z,16.10
2023-12-18T08:47:37.666Z,16.70
2023-12-18T08:50:06.220Z,15.60
2023-12-18T08:52:34.359Z,14.50
2023-12-18T08:55:03.626Z,15.40
2023-12-18T08:57:31.936Z,16.90
2023-12-18T09:00:00.646Z,16.80
2023-12-18T09:02:31.535Z,14.90
2023-12-18T09:04:59.550Z,17.60
2023-12-18T09:07:31.181Z,16.70
2023-12-18T09:09:59.373Z,15.20
2023-12-18T09:12:27.515Z,12.00
2023-12-18T09:14:55.619Z,14.60
2023-12-18T09:17:23.864Z,16.10
2023-12-18T09:19:52.105Z,13.30
2023-12-18T09:22:20.460Z,13.90
2023-12-18T09:24:49.275Z,11.50
2023-12-18T09:27:17.578Z,15.90
2023-12-18T09:29:45.815Z,15.70
2023-12-18T09:32:14.454Z,16.10
2023-12-18T09:34:43.140Z,15.70
2023-12-18T09:37:11.272Z,16.00
2023-12-18T09:39:42.211Z,17.50
2023-12-18T09:42:11.607Z,16.70
2023-12-18T09:44:41.146Z,17.40
2023-12-18T09:47:09.184Z,14.90
2023-12-18T09:49:37.293Z,12.30
2023-12-18T09:52:09.718Z,10.90
2023-12-18T09:54:38.769Z,12.80
2023-12-18T09:57:07.594Z,17.50
2023-12-18T09:59:35.816Z,18.30
2023-12-18T10:02:04.506Z,17.50
2023-12-18T10:04:32.691Z,16.40
2023-12-18T10:07:01.189Z,14.70
2023-12-18T10:09:33.010Z,17.80
2023-12-18T10:12:01.241Z,15.10
2023-12-18T10:14:29.567Z,16.40
2023-12-18T10:16:58.151Z,15.40
2023-12-18T10:19:28.956Z,15.00
2023-12-18T10:21:57.485Z,15.10
2023-12-18T10:24:26.472Z,15.00
2023-12-18T10:26:55.778Z,15.10
2023-12-18T10:29:24.265Z,13.40
2023-12-18T10:31:52.836Z,15.50
2023-12-18T10:34:22.574Z,14.50
2023-12-18T10:36:51.172Z,14.80
2023-12-18T10:39:20.338Z,12.90
2023-12-18T10:41:54.052Z,12.90
2023-12-18T10:44:22.719Z,13.50
2023-12-18T10:46:51.072Z,12.10
2023-12-18T10:49:19.560Z,14.80
2023-12-18T10:51:47.813Z,12.60
2023-12-18T10:54:19.221Z,12.80
2023-12-18T10:56:47.642Z,14.60
2023-12-18T10:59:15.748Z,16.20
2023-12-18T11:01:45.849Z,14.50
2023-12-18T11:04:14.802Z,10.20
2023-12-18T11:06:43.104Z,12.60
2023-12-18T11:09:11.476Z,12.40
2023-12-18T11:11:39.753Z,13.70
2023-12-18T11:14:22.107Z,11.90
2023-12-18T11:16:59.148Z,12.60
2023-12-18T11:22:24.312Z,7.70
2023-12-18T11:24:54.337Z,15.20
2023-12-18T11:27:22.714Z,12.70
2023-12-18T11:29:50.962Z,13.30
2023-12-18T11:32:47.274Z,14.10
2023-12-18T11:35:16.547Z,13.90
2023-12-18T11:37:48.682Z,12.90
2023-12-18T11:40:32.833Z,13.50
2023-12-18T11:43:01.373Z,12.00
2023-12-18T11:45:29.705Z,13.20
2023-12-18T11:47:58.866Z,11.90
2023-12-18T11:50:27.741Z,12.70
2023-12-18T11:52:57.274Z,13.00
2023-12-18T11:55:54.795Z,12.60
2023-12-18T11:58:26.925Z,11.00
2023-12-18T12:00:58.417Z,13.50
2023-12-18T12:03:27.186Z,12.10
2023-12-18T12:05:55.605Z,13.10
2023-12-18T12:08:24.101Z,13.50
2023-12-18T12:10:52.907Z,14.50
2023-12-18T12:13:23.141Z,13.60
2023-12-18T12:15:57.647Z,11.90
2023-12-18T12:18:30.449Z,10.80
2023-12-18T12:21:01.158Z,10.10
2023-12-18T12:23:29.460Z,10.10
2023-12-18T12:26:01.860Z,11.00
2023-12-18T12:28:30.978Z,13.20
2023-12-18T12:31:00.666Z,11.90
2023-12-18T12:33:42.146Z,11.70
2023-12-18T12:36:14.307Z,10.90
2023-12-18T12:38:43.525Z,9.10
2023-12-18T12:41:12.175Z,9.40
2023-12-18T12:43:40.688Z,9.90
2023-12-18T12:46:11.816Z,9.30
2023-12-18T12:48:41.858Z,9.70
2023-12-18T12:51:10.663Z,9.10
2023-12-18T12:53:41.196Z,9.10
2023-12-18T12:56:10.631Z,11.10
2023-12-18T12:58:39.004Z,9.80
2023-12-18T13:01:08.832Z,9.00
2023-12-18T13:03:37.831Z,11.10
2023-12-18T13:06:06.603Z,11.60
2023-12-18T13:08:34.851Z,13.00
2023-12-18T13:11:06.235Z,12.90
2023-12-18T13:13:34.724Z,12.10
2023-12-18T13:16:03.244Z,11.90
2023-12-18T13:18:31.752Z,12.10
2023-12-18T13:20:59.942Z,11.50
2023-12-18T13:23:28.135Z,11.20
2023-12-18T13:25:56.336Z,11.80
2023-12-18T13:28:24.525Z,11.60
2023-12-18T13:30:53.462Z,11.10
2023-12-18T13:33:22.020Z,11.40
2023-12-18T13:35:50.447Z,11.60
2023-12-18T13:38:18.651Z,11.90
2023-12-18T13:40:46.963Z,10.60
2023-12-18T13:43:15.311Z,12.20
2023-12-18T13:45:43.692Z,12.30
2023-12-18T13:48:12.059Z,11.50
2023-12-18T13:50:41.312Z,9.40
2023-12-18T13:53:09.386Z,10.30
2023-12-18T13:55:37.468Z,10.50
2023-12-18T13:58:05.856Z,11.30
2023-12-18T14:00:34.781Z,12.00
2023-12-18T14:03:04.816Z,13.00
2023-12-18T14:05:33.200Z,9.50
2023-12-18T14:08:01.567Z,12.50
2023-12-18T14:10:30.280Z,12.70
2023-12-18T14:12:58.628Z,11.00
2023-12-18T14:15:26.894Z,11.10
2023-12-18T14:17:55.297Z,13.20
2023-12-18T14:20:24.266Z,10.20
2023-12-18T14:22:52.617Z,11.10
2023-12-18T14:25:21.278Z,10.70
2023-12-18T14:27:49.678Z,11.30
2023-12-18T14:30:20.455Z,9.80
2023-12-18T14:32:49.531Z,10.40
2023-12-18T14:35:17.966Z,11.60
2023-12-18T14:37:46.852Z,11.20
2023-12-18T14:40:15.154Z,12.00
2023-12-18T14:42:45.122Z,9.50
2023-12-18T14:45:14.330Z,9.30
2023-12-18T14:47:42.696Z,10.30
2023-12-18T14:50:11.208Z,10.70
2023-12-18T14:52:39.672Z,10.60
2023-12-18T14:55:08.512Z,9.90
2023-12-18T14:57:37.719Z,11.10
2023-12-18T15:00:06.619Z,9.80
2023-12-18T15:02:34.899Z,10.60
2023-12-18T15:05:03.777Z,9.20
2023-12-18T15:07:32.329Z,11.90
2023-12-18T15:10:00.830Z,11.40
2023-12-18T15:12:29.376Z,13.20
2023-12-18T15:14:57.489Z,11.10
2023-12-18T15:17:26.339Z,10.30
2023-12-18T15:19:54.934Z,10.60
2023-12-18T15:22:26.859Z,9.70
2023-12-18T15:24:55.596Z,11.60
2023-12-18T15:27:23.879Z,11.70
2023-12-18T15:29:52.965Z,11.20
2023-12-18T15:32:21.578Z,11.20
2023-12-18T15:34:50.032Z,9.60
2023-12-18T15:37:18.381Z,9.80
2023-12-18T15:39:47.346Z,11.90
2023-12-18T15:42:15.522Z,12.00
2023-12-18T15:44:43.763Z,9.50
2023-12-18T15:47:12.168Z,12.80
2023-12-18T15:49:40.650Z,11.60
2023-12-18T15:52:09.289Z,9.50
2023-12-18T15:54:37.857Z,10.80
2023-12-18T15:57:06.313Z,11.00
2023-12-18T15:59:34.773Z,9.50
2023-12-18T16:02:02.963Z,11.10
2023-12-18T16:04:31.384Z,10.60
2023-12-18T16:07:00.903Z,10.20
2023-12-18T16:09:29.352Z,12.50
2023-12-18T16:11:57.465Z,10.50
2023-12-18T16:14:25.896Z,11.60
2023-12-18T16:16:54.399Z,11.10
2023-12-18T16:19:22.961Z,12.90
2023-12-18T16:21:51.422Z,12.60
2023-12-18T16:24:19.786Z,16.00
2023-12-18T16:26:48.569Z,14.80
2023-12-18T16:29:20.487Z,14.80
2023-12-18T16:31:48.874Z,14.70
2023-12-18T16:34:17.362Z,13.20
2023-12-18T16:36:45.942Z,12.20
2023-12-18T16:39:17.217Z,14.00
2023-12-18T16:41:46.033Z,13.10
2023-12-18T16:44:24.752Z,13.80
2023-12-18T16:46:53.184Z,17.10
2023-12-18T16:49:33.362Z,14.80
2023-12-18T16:52:03.774Z,13.70
2023-12-18T16:54:38.039Z,14.80
2023-12-18T16:57:08.242Z,13.30
2023-12-18T16:59:36.539Z,16.10
2023-12-18T17:02:06.786Z,15.40
2023-12-18T17:04:35.571Z,13.70
2023-12-18T17:07:06.830Z,15.20
2023-12-18T17:09:39.485Z,14.40
2023-12-18T17:12:08.289Z,12.70
2023-12-18T17:14:36.532Z,16.40
2023-12-18T17:17:22.150Z,16.90
2023-12-18T17:20:06.680Z,17.10
2023-12-18T17:22:36.497Z,13.60
2023-12-18T17:25:05.490Z,11.60
2023-12-18T17:27:33.995Z,17.00
2023-12-18T17:30:02.306Z,15.40
2023-12-18T17:32:30.660Z,17.50
2023-12-18T17:34:59.949Z,13.70
2023-12-18T17:37:28.741Z,16.00
2023-12-18T17:39:57.213Z,15.50
2023-12-18T17:42:31.928Z,13.20
2023-12-18T17:45:01.751Z,15.70
2023-12-18T17:47:30.377Z,14.70
2023-12-18T17:50:00.229Z,14.90
2023-12-18T17:52:28.828Z,14.30
2023-12-18T17:54:57.160Z,13.50
2023-12-18T17:57:25.304Z,13.60
2023-12-18T17:59:55.805Z,16.40
2023-12-18T18:02:28.484Z,14.10
2023-12-18T18:04:56.929Z,14.80
2023-12-18T18:07:25.129Z,13.00
2023-12-18T18:09:53.568Z,14.20
2023-12-18T18:12:22.078Z,13.60
2023-12-18T18:14:52.678Z,13.50
2023-12-18T18:17:22.494Z,13.60
2023-12-18T18:19:51.285Z,14.20
2023-12-18T18:22:19.768Z,15.40
2023-12-18T18:24:48.205Z,16.00
2023-12-18T18:27:18.468Z,16.80
2023-12-18T18:29:49.884Z,18.50
2023-12-18T18:32:20.744Z,17.80
2023-12-18T18:34:52.319Z,16.20
2023-12-18T18:37:20.526Z,14.10
2023-12-18T18:39:50.010Z,16.00
2023-12-18T18:42:18.143Z,15.30
2023-12-18T18:44:46.463Z,15.70
2023-12-18T18:47:14.624Z,15.50
2023-12-18T18:49:45.510Z,16.50
2023-12-18T18:52:14.018Z,15.00
2023-12-18T18:54:43.221Z,14.30
2023-12-18T18:57:14.557Z,16.70
2023-12-18T18:59:43.285Z,16.40
2023-12-18T19:02:11.617Z,15.60
2023-12-18T19:04:40.649Z,16.10
2023-12-18T19:07:09.449Z,15.60
2023-12-18T19:09:37.554Z,15.30
2023-12-18T19:12:06.084Z,16.70
2023-12-18T19:14:34.291Z,17.20
2023-12-18T19:17:05.617Z,16.50
2023-12-18T19:19:34.815Z,15.00
2023-12-18T19:22:03.328Z,15.00
2023-12-18T19:24:34.143Z,12.90
2023-12-18T19:27:08.874Z,16.70
2023-12-18T19:29:37.067Z,15.80
2023-12-18T19:32:05.157Z,16.60
2023-12-18T19:34:34.673Z,15.60
2023-12-18T19:37:05.777Z,15.50
2023-12-18T19:39:34.513Z,15.90
2023-12-18T19:42:05.540Z,14.20
2023-12-18T19:44:34.842Z,16.70
2023-12-18T19:47:04.388Z,14.70
2023-12-18T19:49:32.617Z,15.70
2023-12-18T19:52:04.205Z,14.50
2023-12-18T19:54:32.729Z,17.80
2023-12-18T19:57:00.930Z,15.60
2023-12-18T19:59:29.080Z,17.30
2023-12-18T20:02:01.587Z,12.80
2023-12-18T20:04:29.867Z,14.50
2023-12-18T20:06:58.551Z,12.10
2023-12-18T20:09:27.934Z,13.80
2023-12-18T20:11:56.204Z,13.40
2023-12-18T20:14:24.751Z,14.20
2023-12-18T20:16:53.918Z,12.90
2023-12-18T20:19:23.662Z,13.00
2023-12-18T20:21:54.748Z,13.80
2023-12-18T20:24:23.316Z,15.40
2023-12-18T20:26:51.473Z,11.00
2023-12-18T20:29:35.805Z,12.60
2023-12-18T20:32:08.966Z,14.80
2023-12-18T20:34:43.489Z,13.20
2023-12-18T20:37:19.934Z,12.50
2023-12-18T20:39:48.296Z,10.40
2023-12-18T20:42:16.713Z,13.50
2023-12-18T20:47:21.988Z,9.10
2023-12-18T20:49:51.299Z,11.60
2023-12-18T20:52:19.554Z,12.70
2023-12-18T20:54:48.059Z,29.70
2023-12-18T20:57:20.841Z,13.50
2023-12-18T21:00:07.365Z,16.00
2023-12-18T21:02:41.821Z,11.60
2023-12-18T21:05:12.729Z,12.80
2023-12-18T21:07:41.018Z,11.30
2023-12-18T21:10:09.701Z,12.10
2023-12-18T21:12:37.812Z,10.30
2023-12-18T21:15:06.826Z,10.30
2023-12-18T21:17:35.171Z,12.60
2023-12-18T21:20:03.446Z,11.20
2023-12-18T21:22:33.154Z,11.50
2023-12-18T21:25:01.525Z,9.80
2023-12-18T21:27:29.805Z,11.00
2023-12-18T21:29:57.923Z,11.60
2023-12-18T21:32:26.253Z,11.00
2023-12-18T21:34:54.830Z,10.40
2023-12-18T21:37:23.229Z,10.00
2023-12-18T21:39:53.111Z,10.60
2023-12-18T21:42:21.441Z,12.10
2023-12-18T21:44:49.745Z,9.50
2023-12-18T21:47:18.023Z,11.10
2023-12-18T21:49:47.689Z,10.50
2023-12-18T21:52:16.075Z,10.00
2023-12-18T21:54:44.085Z,12.10
2023-12-18T21:57:38.857Z,10.50
2023-12-18T22:00:08.265Z,11.40
2023-12-18T22:02:39.148Z,10.40
2023-12-18T22:05:07.717Z,10.00
2023-12-18T22:07:35.827Z,9.10
2023-12-18T22:10:06.509Z,10.50
2023-12-18T22:12:36.821Z,10.80
2023-12-18T22:15:05.616Z,11.40
2023-12-18T22:17:33.804Z,10.50
2023-12-18T22:20:04.267Z,8.20
2023-12-18T22:22:32.335Z,13.40
2023-12-18T22:25:00.885Z,9.80
2023-12-18T22:27:29.999Z,9.40
2023-12-18T22:29:58.449Z,8.70
2023-12-18T22:32:26.940Z,9.70
2023-12-18T22:34:55.764Z,6.30
2023-12-18T22:37:24.165Z,11.20
2023-12-18T22:39:52.241Z,10.70
2023-12-18T22:42:20.583Z,9.20
2023-12-18T22:44:51.322Z,12.10
2023-12-18T22:47:19.448Z,10.40
2023-12-18T22:49:47.512Z,9.70
2023-12-18T22:52:15.993Z,10.40
2023-12-18T22:54:44.396Z,11.20
2023-12-18T22:57:12.617Z,11.30
2023-12-18T22:59:41.110Z,10.60
2023-12-18T23:02:09.216Z,12.60
2023-12-18T23:04:37.341Z,10.50
2023-12-18T23:07:05.499Z,8.40
2023-12-18T23:09:33.722Z,11.00
2023-12-18T23:12:01.819Z,7.10
2023-12-18T23:14:30.196Z,11.80
2023-12-18T23:16:59.839Z,10.90
2023-12-18T23:19:30.213Z,11.80
2023-12-18T23:21:58.986Z,10.90
2023-12-18T23:24:29.919Z,13.30
2023-12-18T23:26:58.206Z,11.20
2023-12-18T23:29:26.370Z,11.80
2023-12-18T23:31:54.399Z,11.20
2023-12-18T23:34:22.922Z,12.00
2023-12-18T23:36:51.343Z,12.90
2023-12-18T23:39:20.110Z,11.30
2023-12-18T23:41:48.615Z,13.40
2023-12-18T23:44:16.802Z,11.20
2023-12-18T23:46:45.766Z,15.10
2023-12-18T23:49:13.986Z,11.30
2023-12-18T23:51:42.191Z,11.70
2023-12-18T23:54:10.583Z,12.00
2023-12-18T23:56:41.185Z,12.90
2023-12-18T23:59:09.382Z,12.70
